Aeroporto :
LOGIN :

Iscrizione | Disclaimer

   EN    FR    IT 

 










Sommario :    VFR   VFR Marginale   IFR   IFR Intensivo   IFR Molto Intensivo
Visibilità : 
Base nubi : 
>= 8 km
>= 3000ft
5 / 8 km
1000 / 3000 ft
1500m / 5 km
500 / 1000 ft
800 / 1500m
200 / 500 ft
< 800m
< 200 ft
Simboli :   Temporali  Nebbia  Neve Forte  Precipitazioni Forti  Vento > 20 kt
SIGMETs :   Varie  Temporali  Ghiacco  Turbolenza  Onda orograficha  Ceneri Vulcaniche






- Altitudine del aeroporto : 782 ft
- Codice IATA : BGY


LIME - Orio al Serio International - Bergamo

ULTIMO METAR :
  • 141420Z VRB01KT 9999 BKN085 10/03 Q1007 NOSIG

METARs OBSOLETI :
  • 141350Z VRB02KT 9999 BKN080 10/03 Q1007 NOSIG
  • 141320Z VRB02KT 9999 BKN085 10/03 Q1007 NOSIG
  • 141250Z 05003KT 9999 BKN080 10/04 Q1007 NOSIG
  • 141220Z VRB02KT 9999 BKN080 10/02 Q1008 NOSIG
  • 141150Z VRB02KT 9999 BKN080 09/02 Q1008 NOSIG

TAF TAF LIME
Valido dal 14 a 12 ore il 15 a 12 ore UTC


141100Z 1412/1512 VRB05KT 9999 SCT035 BKN070
BECMG 1420/1422 13012KT 4000 RA BKN012 BKN040
TEMPO 1422/1503 SHRA
BECMG 1507/1510 VRB05KT



MetMap, La meteo Aeronautica in un colpo d'occhio ! - Copyright ORBIFLY Dicembre 2007 - Disclaimer

ORBIFLY MET'MAP TEAM :

Programmazione e sviluppo : Alexandra Zaïnal
Concezione e sviluppo : Baudouin d'Aumeries
Co-Programmazione e sviluppo : Marc-Olivier Méhu
Supporto tecnico e logistico : Manuel Goepfert
Aiuto per la traduzione : Arnaldo La Scala

Contatto : metmap@orbifly.com




FONTI E CREDITI :

   NOAA